Time;durP1;ratioP1;P1;durP2;ratioP2;P2;SDS_P1;SDS_P2;PMS_P1;PMS_P2;Temp;Humidity;BMP_temperature;BMP_pressure;BME280_temperature;BME280_humidity;BME280_pressure;Samples;Min_cycle;Max_cycle;Signal;HPM_P1;HPM_P2
2024/01/30 07:35:05;;;;;;;0.70;0.70;;;11.60;99.90;13.80;102237.00;;;;6336099;22;20399;-80
2024/01/30 07:37:30;;;;;;;0.40;0.40;;;11.60;99.90;14.30;102227.00;;;;6272293;22;1380997;-77
2024/01/30 07:39:56;;;;;;;5.30;3.30;;;11.70;99.90;13.60;102242.00;;;;6307694;22;20157;-77
2024/01/30 07:42:22;;;;;;;1.27;1.20;;;11.70;99.90;13.50;102233.00;;;;6309122;22;20149;-77
2024/01/30 07:44:48;;;;;;;1.07;1.07;;;11.50;99.90;13.90;102238.00;;;;6307354;22;20230;-77
2024/01/30 07:47:23;;;;;;;0.30;0.30;;;11.60;99.90;13.70;102231.00;;;;6307073;22;20159;-78
2024/01/30 07:49:49;;;;;;;0.20;0.20;;;11.60;99.90;14.20;102231.00;;;;6275788;22;20163;-80
2024/01/30 07:52:15;;;;;;;2.93;2.83;;;11.70;99.90;14.10;102243.00;;;;6306724;22;20219;-84
2024/01/30 07:54:41;;;;;;;0.70;0.70;;;11.70;99.90;14.20;102234.00;;;;6307624;22;20153;-83
2024/01/30 07:57:07;;;;;;;0.73;0.50;;;11.80;99.90;13.70;102234.00;;;;6306718;22;20243;-84
2024/01/30 07:59:36;;;;;;;0.50;0.50;;;11.70;99.90;13.60;102210.00;;;;6308965;22;20139;-85
2024/01/30 08:02:02;;;;;;;0.97;0.97;;;11.50;99.90;13.20;102237.00;;;;6281730;22;20191;-85
2024/01/30 08:04:30;;;;;;;0.50;0.50;;;11.40;99.90;13.70;102248.00;;;;6306297;22;20166;-85
2024/01/30 08:06:56;;;;;;;1.07;0.87;;;11.50;99.90;13.50;102227.00;;;;6308374;22;20147;-85
2024/01/30 08:09:22;;;;;;;2.17;0.93;;;11.50;99.90;13.50;102249.00;;;;6309044;22;20144;-82
2024/01/30 08:11:51;;;;;;;1.47;1.23;;;11.60;99.90;13.40;102179.00;;;;6308914;22;20147;-84
2024/01/30 08:14:16;;;;;;;0.70;0.63;;;11.60;99.90;14.30;102239.00;;;;6307248;22;20151;-85
2024/01/30 08:16:42;;;;;;;0.60;0.60;;;11.70;99.90;14.00;102253.00;;;;6307031;22;20223;-85
2024/01/30 08:19:08;;;;;;;0.30;0.30;;;11.70;99.90;14.10;102260.00;;;;6305666;22;20256;-79
2024/01/30 08:21:39;;;;;;;1.33;1.33;;;11.80;99.90;13.50;102264.00;;;;6304695;22;20145;-79
2024/01/30 08:24:06;;;;;;;3.17;2.90;;;11.70;99.90;13.80;102251.00;;;;6279270;22;20149;-78
2024/01/30 08:26:33;;;;;;;8.13;3.07;;;11.70;99.90;14.10;102245.00;;;;6305578;22;20158;-78
2024/01/30 08:29:02;;;;;;;1.90;1.80;;;11.80;99.90;14.10;102250.00;;;;6305057;22;20155;-78
2024/01/30 08:31:29;;;;;;;2.00;1.50;;;11.80;99.90;13.90;102259.00;;;;6280879;22;20166;-78
2024/01/30 08:33:55;;;;;;;1.40;0.70;;;11.80;99.90;13.40;102264.00;;;;6308329;22;20179;-78
2024/01/30 08:36:21;;;;;;;0.30;0.30;;;11.70;99.90;14.00;102267.00;;;;6306306;22;20177;-78
2024/01/30 08:38:47;;;;;;;0.63;0.63;;;11.70;99.90;14.40;102257.00;;;;6306865;22;20202;-78
2024/01/30 08:41:13;;;;;;;0.23;0.23;;;11.90;99.90;14.20;102258.00;;;;6308563;22;20142;-78
2024/01/30 08:43:39;;;;;;;3.00;2.77;;;11.90;99.90;14.50;102283.00;;;;6306905;22;20140;-78
2024/01/30 08:46:07;;;;;;;3.30;1.73;;;12.00;99.90;14.10;102281.00;;;;6280744;22;20511;-78
2024/01/30 08:48:33;;;;;;;1.70;1.60;;;12.00;99.90;13.60;102284.00;;;;6305002;22;20155;-78
2024/01/30 08:50:59;;;;;;;0.30;0.30;;;11.80;99.90;13.80;102262.00;;;;6304340;22;20157;-80
2024/01/30 08:53:25;;;;;;;2.73;2.13;;;11.80;99.90;14.10;102289.00;;;;6306415;22;20168;-73
2024/01/30 08:55:51;;;;;;;0.20;0.20;;;11.90;99.90;14.50;102289.00;;;;6304516;22;20147;-82
2024/01/30 08:58:19;;;;;;;1.47;1.37;;;12.00;99.90;13.40;102290.00;;;;6277897;22;20212;-78
2024/01/30 09:00:47;;;;;;;2.00;1.90;;;11.90;99.90;14.00;102267.00;;;;6305873;22;20599;-79
2024/01/30 09:03:13;;;;;;;0.50;0.50;;;11.90;99.90;13.60;102266.00;;;;6306357;22;20262;-77
2024/01/30 09:05:42;;;;;;;0.53;0.53;;;11.80;99.90;14.80;102286.00;;;;6280170;22;20255;-76
2024/01/30 09:08:10;;;;;;;0.20;0.20;;;12.10;99.90;14.70;102301.00;;;;6279790;22;20156;-77
2024/01/30 09:10:37;;;;;;;0.50;0.50;;;12.30;99.90;14.60;102301.00;;;;6305057;22;20232;-77
2024/01/30 09:13:03;;;;;;;0.50;0.50;;;12.20;99.90;14.80;102304.00;;;;6307103;22;20691;-73
2024/01/30 09:15:31;;;;;;;0.30;0.30;;;12.30;99.90;14.70;102311.00;;;;6307093;22;20167;-70
2024/01/30 09:17:57;;;;;;;0.57;0.57;;;12.30;99.90;14.20;102290.00;;;;6307238;22;20149;-76
2024/01/30 09:20:26;;;;;;;0.47;0.47;;;12.20;99.90;14.90;102305.00;;;;6280014;22;20160;-77
2024/01/30 09:22:52;;;;;;;1.20;1.07;;;12.30;99.90;14.40;102307.00;;;;6306032;22;20587;-76
2024/01/30 09:25:18;;;;;;;1.30;0.80;;;12.30;99.90;14.00;102313.00;;;;6307745;22;20147;-77
2024/01/30 09:27:44;;;;;;;0.60;0.60;;;12.20;99.90;14.80;102310.00;;;;6306598;22;20229;-75
2024/01/30 09:30:11;;;;;;;1.43;0.60;;;12.30;99.90;14.90;102334.00;;;;6306339;22;20169;-73
2024/01/30 09:32:37;;;;;;;0.63;0.63;;;12.60;99.90;15.00;102312.00;;;;6279887;22;20554;-73
2024/01/30 09:35:03;;;;;;;1.43;1.33;;;12.60;99.90;15.80;102285.00;;;;6305650;22;20135;-74
2024/01/30 09:37:32;;;;;;;1.27;1.27;;;12.90;99.90;14.60;102316.00;;;;6280129;22;20168;-76
2024/01/30 09:39:58;;;;;;;0.23;0.23;;;12.60;99.90;14.40;102332.00;;;;6306014;22;20164;-82
2024/01/30 09:42:24;;;;;;;0.73;0.73;;;12.60;99.90;14.20;102332.00;;;;6307601;22;20216;-79
2024/01/30 09:44:52;;;;;;;15.50;11.13;;;12.50;99.90;14.00;102311.00;;;;6306647;22;20244;-81
2024/01/30 09:47:18;;;;;;;0.20;0.20;;;12.10;99.90;15.10;102354.00;;;;6279741;22;20156;-81
2024/01/30 09:49:44;;;;;;;0.30;0.30;;;12.50;99.90;14.80;102333.00;;;;6307298;22;20186;-81
2024/01/30 09:52:11;;;;;;;2.37;1.37;;;12.50;99.90;14.90;102350.00;;;;6305612;22;20675;-80
2024/01/30 09:54:38;;;;;;;0.57;0.57;;;12.60;99.90;14.90;102307.00;;;;6306077;22;20656;-81
2024/01/30 09:57:05;;;;;;;0.40;0.40;;;12.70;99.90;14.60;102359.00;;;;6279496;22;20149;-80
2024/01/30 09:59:33;;;;;;;2.67;2.47;;;12.60;99.90;14.60;102356.00;;;;6306984;22;20270;-80
2024/01/30 10:02:03;;;;;;;1.70;0.97;;;12.70;99.90;15.40;102367.00;;;;6305370;22;20335;-81
2024/01/30 10:04:29;;;;;;;8.30;4.30;;;12.80;99.90;14.60;102372.00;;;;6305390;22;20163;-81
2024/01/30 10:06:58;;;;;;;1.40;1.40;;;12.80;99.90;14.40;102376.00;;;;6306146;22;20144;-80
2024/01/30 10:09:27;;;;;;;1.43;1.20;;;12.50;99.90;13.60;102381.00;;;;6305247;22;20465;-80
2024/01/30 10:12:00;;;;;;;6.90;3.53;;;12.20;99.90;12.90;102329.00;;;;6304996;22;20224;-80
2024/01/30 10:14:26;;;;;;;4.60;2.90;;;11.90;99.90;12.90;102360.00;;;;6305132;22;20219;-80
2024/01/30 10:16:51;;;;;;;11.30;1.93;;;11.80;99.90;13.30;102385.00;;;;6305356;22;20156;-80
2024/01/30 10:19:17;;;;;;;1.53;1.43;;;11.80;99.90;12.90;102383.00;;;;6306635;22;20249;-80
2024/01/30 10:33:30;;;;;;;0.20;0.20;;;11.40;99.90;13.50;102408.00;;;;5086721;27;20611;-81
2024/01/30 10:36:02;;;;;;;1.73;0.80;;;11.60;99.90;12.80;102418.00;;;;5064374;28;20242;-83
2024/01/30 10:38:42;;;;;;;0.27;0.27;;;11.60;99.90;12.70;102411.00;;;;5064620;28;20180;-83
2024/01/30 10:41:13;;;;;;;2.40;1.50;;;11.50;99.90;12.70;102432.00;;;;5067753;28;20673;-85
2024/01/30 10:43:52;;;;;;;1.13;1.03;;;11.50;99.90;12.90;102433.00;;;;5067821;28;20641;-85
2024/01/30 10:46:30;;;;;;;0.87;0.47;;;11.50;99.90;12.90;102441.00;;;;5052842;28;20198;-84
2024/01/30 10:48:59;;;;;;;0.70;0.60;;;11.60;99.90;12.70;102430.00;;;;5063137;28;20215;-83
2024/01/30 10:51:27;;;;;;;1.50;0.53;;;11.40;99.90;13.20;102450.00;;;;5052460;28;20212;-84
2024/01/30 10:53:53;;;;;;;0.70;0.70;;;11.40;99.90;12.80;102443.00;;;;5043128;28;20215;-83
2024/01/30 10:56:26;;;;;;;0.40;0.40;;;11.30;99.90;13.20;102294.00;;;;5068646;28;20182;-84
2024/01/30 10:58:53;;;;;;;0.20;0.20;;;11.50;99.90;13.50;102443.00;;;;5050534;28;20177;-84
2024/01/30 11:01:23;;;;;;;0.20;0.20;;;11.50;99.90;13.70;102443.00;;;;5068490;28;20196;-84
2024/01/30 11:03:53;;;;;;;0.60;0.50;;;11.80;99.90;12.70;102452.00;;;;5067688;28;20191;-83
2024/01/30 11:06:25;;;;;;;6.70;0.83;;;11.60;99.90;13.10;102437.00;;;;5051205;28;20189;-84
2024/01/30 11:09:09;;;;;;;0.20;0.20;;;11.40;99.90;13.30;102447.00;;;;5068189;28;20183;-83
2024/01/30 11:11:59;;;;;;;1.00;0.67;;;11.50;99.90;12.90;102445.00;;;;5067962;28;20612;-83
2024/01/30 11:14:26;;;;;;;0.50;0.50;;;11.40;99.90;12.90;102398.00;;;;5081294;28;20185;-83
2024/01/30 11:16:52;;;;;;;0.60;0.60;;;11.50;99.90;13.10;102448.00;;;;5084230;28;20714;-83
2024/01/30 11:19:31;;;;;;;0.60;0.60;;;11.70;99.90;13.50;102457.00;;;;5067733;28;20220;-84
2024/01/30 11:21:57;;;;;;;0.20;0.20;;;12.00;99.90;13.50;102437.00;;;;5067599;28;20192;-84
2024/01/30 11:24:29;;;;;;;2.27;0.80;;;11.80;99.90;13.70;102470.00;;;;5067921;28;20257;-83
2024/01/30 11:26:59;;;;;;;1.80;0.90;;;12.00;99.90;12.90;102395.00;;;;5069164;28;20175;-83
2024/01/30 11:29:28;;;;;;;2.20;0.97;;;11.70;99.90;12.30;102453.00;;;;5051708;28;20268;-83
2024/01/30 11:31:58;;;;;;;4.70;1.17;;;11.40;99.90;13.10;102455.00;;;;5067312;28;20221;-79
2024/01/30 11:34:25;;;;;;;13.83;1.73;;;11.50;99.90;13.60;102470.00;;;;5050130;28;20292;-83
2024/01/30 11:37:04;;;;;;;0.97;0.97;;;11.70;99.90;12.90;102454.00;;;;5067522;28;20179;-78
2024/01/30 11:39:30;;;;;;;1.10;1.00;;;11.60;99.90;13.30;102454.00;;;;5068015;28;20204;-77
2024/01/30 11:41:59;;;;;;;0.20;0.20;;;11.50;99.90;12.80;102462.00;;;;5067393;28;20699;-76
2024/01/30 11:44:25;;;;;;;0.10;0.10;;;11.40;99.90;13.90;102470.00;;;;5055896;28;20245;-81
2024/01/30 11:46:57;;;;;;;3.23;1.30;;;11.60;99.90;13.80;102465.00;;;;5055026;28;20185;-81
2024/01/30 11:49:29;;;;;;;3.70;0.70;;;11.60;99.90;12.50;102469.00;;;;5053682;28;20181;-81
2024/01/30 11:52:00;;;;;;;0.70;0.70;;;11.40;99.90;12.80;102452.00;;;;5054028;28;20225;-81
2024/01/30 11:54:27;;;;;;;0.90;0.77;;;11.20;99.90;12.60;102467.00;;;;5051250;28;20186;-81
2024/01/30 11:56:53;;;;;;;0.97;0.40;;;11.30;99.90;13.20;102457.00;;;;5052367;28;20236;-81
2024/01/30 11:59:20;;;;;;;0.70;0.60;;;11.40;99.90;12.40;102454.00;;;;5055790;28;20280;-81
2024/01/30 12:01:51;;;;;;;0.50;0.50;;;11.20;99.90;13.50;102477.00;;;;5056095;28;20195;-81
2024/01/30 12:04:18;;;;;;;0.30;0.30;;;11.40;99.90;13.60;102456.00;;;;5058964;28;20180;-81
2024/01/30 12:06:47;;;;;;;0.20;0.20;;;11.60;99.90;13.10;102457.00;;;;5058358;28;20200;-81
2024/01/30 12:09:24;;;;;;;2.73;0.97;;;11.60;99.90;13.20;102473.00;;;;5047575;28;20268;-81
2024/01/30 12:11:50;;;;;;;0.20;0.20;;;11.50;99.90;14.10;102477.00;;;;5056612;28;20208;-81
2024/01/30 12:14:17;;;;;;;1.23;0.73;;;11.70;99.90;13.40;102409.00;;;;5060297;28;20292;-81
2024/01/30 12:16:43;;;;;;;0.60;0.60;;;11.60;99.90;12.80;102484.00;;;;5057482;28;20188;-81
2024/01/30 12:19:12;;;;;;;0.30;0.30;;;11.40;99.90;13.30;102463.00;;;;5061325;28;20190;-82
2024/01/30 12:21:38;;;;;;;1.70;0.57;;;11.40;99.90;13.60;102497.00;;;;5050611;28;20231;-81
2024/01/30 12:24:07;;;;;;;1.10;0.60;;;11.50;99.90;13.70;102465.00;;;;5051569;28;20194;-81
2024/01/30 12:26:35;;;;;;;0.40;0.40;;;11.50;99.90;13.60;102494.00;;;;5050183;28;20185;-81
2024/01/30 12:29:04;;;;;;;2.53;0.70;;;11.50;99.90;13.20;102437.00;;;;5053247;28;20231;-80
2024/01/30 12:31:32;;;;;;;1.37;0.50;;;11.50;99.90;13.60;102504.00;;;;5053098;28;20294;-81
2024/01/30 12:34:00;;;;;;;0.20;0.20;;;11.50;99.90;12.80;102465.00;;;;5051051;28;20217;-81
2024/01/30 12:36:28;;;;;;;0.20;0.20;;;11.30;99.90;13.90;102492.00;;;;5054656;28;20182;-81
2024/01/30 12:38:55;;;;;;;1.57;0.27;;;11.40;99.90;13.00;102495.00;;;;5053173;28;20181;-81
2024/01/30 12:41:21;;;;;;;3.80;1.07;;;11.30;99.90;12.80;102489.00;;;;5054877;28;20670;-82
2024/01/30 12:43:49;;;;;;;4.80;1.43;;;11.30;99.90;12.70;102477.00;;;;5054708;28;20244;-81
2024/01/30 12:46:17;;;;;;;0.40;0.40;;;11.20;99.90;12.40;102481.00;;;;5035858;28;20202;-77
2024/01/30 12:48:43;;;;;;;1.27;0.93;;;11.00;99.90;12.50;102481.00;;;;5066700;28;20180;-76
2024/01/30 12:51:09;;;;;;;1.30;0.50;;;10.90;99.90;12.50;102479.00;;;;5062098;28;20679;-76
2024/01/30 12:53:35;;;;;;;0.53;0.53;;;10.90;99.90;11.80;102477.00;;;;5054159;28;20190;-77
2024/01/30 12:56:01;;;;;;;9.67;1.30;;;10.80;99.90;11.70;102472.00;;;;5034020;28;20178;-77
2024/01/30 12:58:27;;;;;;;0.30;0.30;;;10.70;99.90;12.30;102490.00;;;;5052222;28;20217;-76
2024/01/30 13:00:59;;;;;;;0.60;0.60;;;10.60;99.90;12.20;102500.00;;;;5053868;28;20264;-76
2024/01/30 13:03:25;;;;;;;0.60;0.60;;;10.80;99.90;12.30;102518.00;;;;5052777;28;20179;-76
2024/01/30 13:05:54;;;;;;;2.63;0.80;;;10.70;99.90;12.10;102458.00;;;;5054260;28;20642;-77
2024/01/30 13:08:20;;;;;;;2.00;0.77;;;10.60;99.90;12.30;102522.00;;;;5061581;28;20193;-76
2024/01/30 13:10:46;;;;;;;3.70;0.87;;;10.50;99.90;12.60;102526.00;;;;5059943;28;20192;-77
2024/01/30 13:13:12;;;;;;;1.30;0.73;;;10.70;99.90;12.40;102532.00;;;;5060583;28;20580;-76
2024/01/30 13:15:38;;;;;;;0.77;0.77;;;10.80;99.90;12.50;102520.00;;;;5061303;28;20189;-76
2024/01/30 13:18:10;;;;;;;0.50;0.50;;;10.60;99.90;11.70;102539.00;;;;5061218;28;20191;-77
2024/01/30 13:20:36;;;;;;;0.67;0.67;;;10.50;99.90;11.40;102528.00;;;;5061215;28;20228;-76
2024/01/30 13:23:02;;;;;;;1.37;0.60;;;10.30;99.90;11.60;102542.00;;;;5061337;28;20181;-76
2024/01/30 13:25:28;;;;;;;1.60;0.80;;;10.30;99.90;12.10;102537.00;;;;5059897;28;20185;-76
2024/01/30 13:27:57;;;;;;;0.40;0.40;;;10.40;99.90;12.60;102546.00;;;;5044100;28;20270;-77
2024/01/30 13:30:23;;;;;;;1.10;0.67;;;10.50;99.90;11.50;102529.00;;;;5044961;28;20197;-76
2024/01/30 13:32:49;;;;;;;2.10;1.43;;;10.30;99.90;12.10;102537.00;;;;5043720;28;20224;-77
2024/01/30 13:35:15;;;;;;;1.33;0.93;;;10.30;99.90;12.20;102555.00;;;;5061880;28;20189;-76
2024/01/30 13:37:41;;;;;;;0.37;0.37;;;10.40;99.90;11.80;102548.00;;;;5061181;28;20191;-76
2024/01/30 13:40:11;;;;;;;0.63;0.63;;;10.30;99.90;12.50;102564.00;;;;5060304;28;20182;-76
2024/01/30 13:42:37;;;;;;;0.50;0.50;;;10.50;99.90;12.00;102567.00;;;;5060962;28;20210;-76
2024/01/30 13:45:03;;;;;;;6.13;1.80;;;10.40;99.90;12.20;102555.00;;;;5061286;28;20196;-76
2024/01/30 13:47:29;;;;;;;1.07;0.90;;;10.30;99.90;11.90;102566.00;;;;5059560;28;20231;-74
2024/01/30 13:49:55;;;;;;;0.50;0.50;;;10.30;99.90;11.70;102560.00;;;;5060935;28;20214;-74
2024/01/30 13:52:21;;;;;;;0.20;0.20;;;10.20;99.90;12.70;102567.00;;;;5061968;28;20673;-74
2024/01/30 13:54:47;;;;;;;0.30;0.30;;;10.30;99.90;11.90;102574.00;;;;5061227;28;20186;-74
2024/01/30 13:57:13;;;;;;;0.20;0.20;;;10.30;99.90;13.20;102586.00;;;;5043654;28;20264;-74
2024/01/30 13:59:39;;;;;;;2.23;1.10;;;10.60;99.90;12.20;102582.00;;;;5044156;28;20713;-74
2024/01/30 14:02:08;;;;;;;3.50;0.93;;;10.50;99.90;11.40;102517.00;;;;5075773;28;20200;-74
2024/01/30 14:04:34;;;;;;;1.50;1.37;;;10.10;99.90;11.60;102535.00;;;;5059206;28;20185;-74
2024/01/30 14:07:00;;;;;;;5.17;0.90;;;10.10;99.90;11.80;102580.00;;;;5059019;28;20229;-75
2024/01/30 14:09:26;;;;;;;0.57;0.57;;;10.10;99.90;12.70;102563.00;;;;5059762;28;21074;-74
2024/01/30 14:11:53;;;;;;;0.77;0.30;;;10.30;99.90;11.70;102573.00;;;;5059351;28;20213;-74
2024/01/30 14:14:19;;;;;;;0.53;0.53;;;10.20;99.90;12.30;102567.00;;;;5044300;28;20285;-74
2024/01/30 14:16:45;;;;;;;0.40;0.40;;;10.30;99.90;12.10;102569.00;;;;5060537;28;20281;-74
2024/01/30 14:19:14;;;;;;;0.37;0.37;;;10.20;99.90;11.90;102586.00;;;;5061244;28;20193;-74
2024/01/30 14:21:46;;;;;;;1.40;0.70;;;10.20;99.90;11.90;102569.00;;;;5059917;28;20215;-74
2024/01/30 14:24:12;;;;;;;0.63;0.63;;;10.20;99.90;12.00;102588.00;;;;5059775;28;20315;-74
2024/01/30 14:26:40;;;;;;;0.27;0.27;;;10.30;99.90;11.70;102594.00;;;;5042989;28;20315;-74
2024/01/30 14:29:07;;;;;;;1.10;0.97;;;10.20;99.90;12.20;102547.00;;;;5059534;28;20260;-74
2024/01/30 14:31:32;;;;;;;0.33;0.33;;;10.20;99.90;12.80;102591.00;;;;5059569;28;20218;-74
2024/01/30 14:33:59;;;;;;;5.40;0.70;;;10.40;99.90;12.60;102588.00;;;;5059927;28;20185;-75
2024/01/30 14:36:27;;;;;;;0.47;0.47;;;10.50;99.90;11.90;102611.00;;;;5061539;28;20181;-74
2024/01/30 14:38:54;;;;;;;2.43;0.73;;;10.30;99.90;11.90;102612.00;;;;5058024;28;20213;-74
2024/01/30 14:41:20;;;;;;;0.20;0.20;;;10.20;99.90;12.90;102629.00;;;;5059249;28;20662;-75
2024/01/30 14:43:46;;;;;;;1.63;1.53;;;10.30;99.90;12.60;102602.00;;;;5061130;28;20187;-74
2024/01/30 14:46:15;;;;;;;0.70;0.70;;;10.30;99.90;12.10;102614.00;;;;5058879;28;20217;-74
2024/01/30 14:48:41;;;;;;;0.40;0.40;;;10.30;99.90;13.00;102635.00;;;;5058087;28;20651;-75
2024/01/30 14:51:07;;;;;;;4.90;1.03;;;10.50;99.90;12.30;102634.00;;;;5042782;28;20206;-76
2024/01/30 14:53:33;;;;;;;0.60;0.60;;;10.30;99.90;12.80;102631.00;;;;5058351;28;20183;-75
2024/01/30 14:55:59;;;;;;;1.60;1.50;;;10.40;99.90;11.40;102588.00;;;;5058170;28;20686;-74
2024/01/30 14:58:46;;;;;;;1.43;1.33;;;10.20;99.90;11.30;102625.00;;;;5057602;28;20201;-74
2024/01/30 15:01:14;;;;;;;0.80;0.80;;;9.90;99.90;11.30;102627.00;;;;5059337;28;20191;-76
2024/01/30 15:03:42;;;;;;;1.93;1.83;;;9.80;99.90;11.70;102604.00;;;;5042955;28;20246;-74
2024/01/30 15:06:17;;;;;;;0.20;0.20;;;9.80;99.90;11.90;102579.00;;;;5058210;28;20195;-75
2024/01/30 15:08:44;;;;;;;4.83;1.83;;;9.80;99.90;12.40;102658.00;;;;5044444;28;20187;-72
2024/01/30 15:11:17;;;;;;;3.20;2.43;;;10.10;99.90;12.30;102655.00;;;;5060816;28;20185;-76
2024/01/30 15:13:43;;;;;;;0.20;0.20;;;10.20;99.90;12.70;102638.00;;;;5059142;28;20607;-77
2024/01/30 15:16:21;;;;;;;2.50;2.30;;;10.20;99.90;12.80;102649.00;;;;5059917;28;20272;-76
2024/01/30 15:18:49;;;;;;;0.50;0.50;;;10.40;99.90;13.30;102661.00;;;;5044285;28;20658;-79
2024/01/30 15:21:20;;;;;;;0.30;0.30;;;10.50;99.90;13.30;102675.00;;;;5062075;28;20195;-76
2024/01/30 15:23:46;;;;;;;0.93;0.93;;;10.60;99.90;12.60;102667.00;;;;5063224;28;20177;-76
2024/01/30 15:26:15;;;;;;;1.23;1.23;;;10.30;99.90;12.30;102660.00;;;;5062508;28;20187;-76
2024/01/30 15:28:44;;;;;;;0.30;0.30;;;10.20;99.90;12.90;102675.00;;;;5063956;28;20182;-76
2024/01/30 15:31:10;;;;;;;1.27;1.23;;;10.30;99.90;12.40;102672.00;;;;5061974;28;20186;-76
2024/01/30 15:33:44;;;;;;;0.73;0.73;;;10.20;99.90;11.70;102673.00;;;;5046879;28;20679;-76
2024/01/30 15:36:17;;;;;;;2.50;1.60;;;10.00;99.90;11.80;102673.00;;;;5055219;28;20657;-76
2024/01/30 15:38:43;;;;;;;2.00;0.77;;;9.80;99.90;11.20;102687.00;;;;5052975;28;20184;-76
2024/01/30 15:41:12;;;;;;;2.80;1.53;;;9.70;99.90;12.10;102685.00;;;;5062565;28;20662;-76
2024/01/30 15:43:41;;;;;;;5.57;1.60;;;9.90;99.90;11.30;102690.00;;;;5061467;28;20565;-76
2024/01/30 15:46:10;;;;;;;1.73;1.63;;;9.70;99.90;11.80;102673.00;;;;5047809;28;20258;-76
2024/01/30 15:48:45;;;;;;;1.47;1.40;;;9.80;99.90;11.20;102677.00;;;;5061993;28;20638;-75
2024/01/30 15:51:10;;;;;;;5.07;3.13;;;9.60;99.90;11.10;102694.00;;;;5064105;28;20935;-77
2024/01/30 15:54:00;;;;;;;2.73;1.60;;;9.60;99.90;10.60;102694.00;;;;5062947;28;20195;-75
2024/01/30 15:56:26;;;;;;;4.63;2.80;;;9.50;99.90;11.10;102645.00;;;;5063622;28;20200;-76
2024/01/30 15:58:54;;;;;;;1.57;1.47;;;9.50;99.90;11.40;102715.00;;;;5062729;28;20191;-77
2024/01/30 16:01:20;;;;;;;2.47;2.13;;;9.60;99.90;10.60;102709.00;;;;5045199;28;20561;-76
2024/01/30 16:03:46;;;;;;;1.13;1.13;;;9.40;99.90;11.40;102725.00;;;;5064209;28;20284;-75
2024/01/30 16:06:26;;;;;;;0.80;0.80;;;9.50;99.90;11.20;102712.00;;;;5046489;28;20696;-76
2024/01/30 16:08:52;;;;;;;3.27;2.97;;;9.40;99.90;11.20;102728.00;;;;5061295;28;20189;-76
2024/01/30 16:11:21;;;;;;;0.73;0.60;;;9.60;99.90;11.60;102634.00;;;;5062634;28;20329;-77
2024/01/30 16:13:51;;;;;;;3.63;1.27;;;9.60;99.90;11.40;102731.00;;;;5063337;28;20205;-76
2024/01/30 16:16:32;;;;;;;2.77;2.57;;;9.60;99.90;11.40;102725.00;;;;5047179;28;20580;-76
2024/01/30 16:18:59;;;;;;;2.73;2.20;;;9.50;99.90;11.90;102670.00;;;;5063074;28;20187;-76
2024/01/30 16:21:25;;;;;;;4.07;3.20;;;9.70;99.90;10.70;102716.00;;;;5063742;28;20185;-77
2024/01/30 16:23:57;;;;;;;2.77;2.53;;;9.40;99.90;11.50;102721.00;;;;5044850;28;20192;-77
2024/01/30 16:26:23;;;;;;;1.20;1.13;;;9.40;99.90;11.40;102716.00;;;;5060714;28;20191;-76
2024/01/30 16:28:55;;;;;;;4.77;2.57;;;9.50;99.90;11.30;102671.00;;;;5062566;28;20187;-78
2024/01/30 16:31:24;;;;;;;1.40;1.30;;;9.40;99.90;11.50;102717.00;;;;5061957;28;20212;-77
2024/01/30 16:33:50;;;;;;;11.77;2.80;;;9.40;99.90;11.40;102701.00;;;;5045878;28;20195;-77
2024/01/30 16:36:16;;;;;;;4.10;3.60;;;9.40;99.90;10.70;102714.00;;;;5062432;28;20714;-74
2024/01/30 16:38:45;;;;;;;1.73;1.57;;;9.20;99.90;11.00;102719.00;;;;5061364;28;20184;-77
2024/01/30 16:41:18;;;;;;;0.40;0.40;;;9.30;99.90;11.20;102699.00;;;;5063618;28;20195;-75
2024/01/30 16:43:44;;;;;;;0.40;0.40;;;9.30;99.90;12.20;102682.00;;;;5045221;28;20199;-76
2024/01/30 16:46:21;;;;;;;1.13;0.87;;;9.60;99.90;10.30;102701.00;;;;5045617;28;20657;-75
2024/01/30 16:48:50;;;;;;;1.37;1.30;;;9.10;99.90;10.10;102726.00;;;;5061656;28;20184;-76
2024/01/30 16:51:16;;;;;;;1.17;1.07;;;8.90;99.90;10.90;102702.00;;;;5062288;28;20694;-76
2024/01/30 16:53:47;;;;;;;1.53;0.90;;;9.00;99.90;11.20;102722.00;;;;5060517;28;20635;-76
2024/01/30 16:56:14;;;;;;;1.27;1.00;;;9.10;99.90;11.40;102748.00;;;;5061325;28;20229;-76
2024/01/30 16:58:43;;;;;;;1.83;1.73;;;9.30;99.90;11.00;102732.00;;;;5045650;28;20199;-76
2024/01/30 17:01:14;;;;;;;1.47;1.37;;;9.30;99.90;10.90;102679.00;;;;5045317;28;20243;-76
2024/01/30 17:03:43;;;;;;;5.30;4.03;;;9.10;99.90;10.60;102742.00;;;;5058991;28;20209;-75
2024/01/30 17:06:20;;;;;;;2.43;1.90;;;9.00;99.90;10.80;102703.00;;;;5062034;28;20183;-76
2024/01/30 17:08:46;;;;;;;4.13;3.77;;;9.10;99.90;10.90;102762.00;;;;5061128;28;20191;-76
2024/01/30 17:11:14;;;;;;;3.60;3.30;;;9.10;99.90;10.90;102697.00;;;;5061169;28;20539;-76
2024/01/30 17:13:43;;;;;;;1.47;1.37;;;9.20;99.90;11.20;102743.00;;;;5061746;28;20195;-76
2024/01/30 17:16:09;;;;;;;5.10;2.93;;;9.10;99.90;10.50;102755.00;;;;5061199;28;20189;-76
2024/01/30 17:18:38;;;;;;;1.33;1.30;;;9.10;99.90;10.70;102753.00;;;;5061934;28;20275;-76
2024/01/30 17:21:06;;;;;;;2.67;2.43;;;9.10;99.90;10.30;102767.00;;;;5039116;28;20611;-76
2024/01/30 17:23:39;;;;;;;3.33;2.57;;;8.90;99.90;10.30;102781.00;;;;5061472;28;20199;-77
2024/01/30 17:26:09;;;;;;;5.23;2.37;;;8.80;99.90;10.10;102731.00;;;;5060505;28;20612;-76
2024/01/30 17:28:35;;;;;;;2.83;2.63;;;8.80;99.90;10.80;102767.00;;;;5059799;28;20224;-77
2024/01/30 17:31:03;;;;;;;1.87;1.73;;;8.90;99.90;11.20;102804.00;;;;5043366;28;20671;-77
2024/01/30 17:33:36;;;;;;;0.57;0.57;;;9.10;99.90;10.40;102799.00;;;;5059677;28;20309;-76
2024/01/30 17:36:05;;;;;;;3.20;2.90;;;8.90;99.90;11.20;102735.00;;;;5061278;28;20217;-76
2024/01/30 17:38:37;;;;;;;2.33;2.13;;;9.00;99.90;10.50;102791.00;;;;5076763;28;20199;-75
2024/01/30 17:41:03;;;;;;;0.97;0.87;;;9.10;99.90;11.10;102793.00;;;;5076252;28;20175;-76
2024/01/30 17:43:32;;;;;;;3.63;3.33;;;9.10;99.90;10.80;102797.00;;;;5045654;28;20199;-76
2024/01/30 17:45:59;;;;;;;1.67;1.57;;;9.00;99.90;11.50;102808.00;;;;5060974;28;20193;-76
2024/01/30 17:48:25;;;;;;;4.83;3.33;;;9.10;99.90;10.80;102816.00;;;;5077137;28;20182;-76
2024/01/30 17:50:57;;;;;;;4.00;2.10;;;9.10;99.90;10.30;102808.00;;;;5060720;28;20268;-76
2024/01/30 17:53:23;;;;;;;3.93;1.93;;;8.90;99.90;11.30;102775.00;;;;5060184;28;20219;-79
2024/01/30 17:56:11;;;;;;;0.40;0.40;;;9.00;99.90;11.10;102820.00;;;;5060841;28;20184;-76
2024/01/30 17:58:40;;;;;;;0.90;0.90;;;9.00;99.90;10.60;102807.00;;;;5076330;28;20189;-76
2024/01/30 18:01:12;;;;;;;1.13;1.03;;;8.80;99.90;10.30;102830.00;;;;5061513;28;20550;-76
2024/01/30 18:03:41;;;;;;;1.27;1.17;;;8.80;99.90;10.60;102831.00;;;;5056308;28;20198;-76
2024/01/30 18:06:07;;;;;;;2.00;1.60;;;8.70;99.90;10.70;102809.00;;;;5053381;28;20202;-76
2024/01/30 18:08:43;;;;;;;1.13;1.07;;;8.80;99.90;10.10;102828.00;;;;5051564;28;20634;-76
2024/01/30 18:11:09;;;;;;;0.90;0.87;;;8.70;99.90;10.40;102850.00;;;;5035645;28;20183;-76
2024/01/30 18:13:47;;;;;;;0.37;0.37;;;8.60;99.90;10.90;102853.00;;;;5052646;28;20207;-76
2024/01/30 18:16:13;;;;;;;4.03;3.67;;;8.80;99.90;10.60;102844.00;;;;5035077;28;20628;-76
2024/01/30 18:18:54;;;;;;;1.63;1.53;;;8.80;99.90;10.40;102847.00;;;;5051695;28;20237;-75
2024/01/30 18:21:27;;;;;;;1.53;1.43;;;8.70;99.90;10.00;102846.00;;;;5052109;28;20179;-75
2024/01/30 18:23:56;;;;;;;1.47;1.43;;;8.70;99.90;10.20;102832.00;;;;5051410;28;20171;-76
2024/01/30 18:26:27;;;;;;;0.77;0.77;;;8.50;99.90;10.60;102848.00;;;;5036473;28;20246;-76
2024/01/30 18:28:56;;;;;;;1.27;1.27;;;8.60;99.90;10.00;102824.00;;;;5051771;28;20197;-76
2024/01/30 18:31:26;;;;;;;2.10;1.90;;;8.50;99.90;10.40;102840.00;;;;5052450;28;20649;-76
2024/01/30 18:33:55;;;;;;;3.27;2.97;;;8.50;99.90;10.30;102852.00;;;;5051541;28;20185;-76
2024/01/30 18:36:40;;;;;;;1.50;0.87;;;8.50;99.90;10.50;102843.00;;;;5052913;28;20179;-77
2024/01/30 18:39:06;;;;;;;1.53;1.47;;;8.70;99.90;9.60;102825.00;;;;5054912;28;20606;-76
2024/01/30 18:41:35;;;;;;;1.80;1.70;;;8.40;99.90;9.60;102819.00;;;;5047127;28;20187;-75